sensor_id;sensor_type;location;lat;lon;timestamp;pressure;altitude;pressure_sealevel;temperature;humidity
27202;BME280;14717;46.924;15.474;2023-09-08T00:00:49;98517.94;;;15.23;100.00
27202;BME280;14717;46.924;15.474;2023-09-08T00:03:14;98514.84;;;15.24;100.00
27202;BME280;14717;46.924;15.474;2023-09-08T00:05:39;98518.94;;;15.45;100.00
27202;BME280;14717;46.924;15.474;2023-09-08T00:08:05;98521.91;;;15.48;100.00
27202;BME280;14717;46.924;15.474;2023-09-08T00:10:30;98520.16;;;15.52;100.00
27202;BME280;14717;46.924;15.474;2023-09-08T00:12:55;98514.88;;;15.51;100.00
27202;BME280;14717;46.924;15.474;2023-09-08T00:15:21;98516.75;;;15.55;100.00
27202;BME280;14717;46.924;15.474;2023-09-08T00:17:46;98511.81;;;15.52;100.00
27202;BME280;14717;46.924;15.474;2023-09-08T00:20:12;98518.44;;;15.56;100.00
27202;BME280;14717;46.924;15.474;2023-09-08T00:22:38;98510.38;;;15.55;100.00
27202;BME280;14717;46.924;15.474;2023-09-08T00:25:04;98519.84;;;15.40;100.00
27202;BME280;14717;46.924;15.474;2023-09-08T00:27:30;98510.66;;;15.08;100.00
27202;BME280;14717;46.924;15.474;2023-09-08T00:29:56;98509.69;;;15.18;100.00
27202;BME280;14717;46.924;15.474;2023-09-08T00:32:21;98511.16;;;15.15;100.00
27202;BME280;14717;46.924;15.474;2023-09-08T00:34:47;98513.84;;;15.20;100.00
27202;BME280;14717;46.924;15.474;2023-09-08T00:37:12;98507.47;;;15.33;100.00
27202;BME280;14717;46.924;15.474;2023-09-08T00:39:38;98504.78;;;15.28;100.00
27202;BME280;14717;46.924;15.474;2023-09-08T00:42:03;98502.31;;;15.27;100.00
27202;BME280;14717;46.924;15.474;2023-09-08T00:44:28;98496.34;;;15.33;100.00
27202;BME280;14717;46.924;15.474;2023-09-08T00:46:54;98501.91;;;15.33;100.00
27202;BME280;14717;46.924;15.474;2023-09-08T00:49:20;98493.97;;;15.08;100.00
27202;BME280;14717;46.924;15.474;2023-09-08T00:51:45;98492.03;;;15.09;100.00
27202;BME280;14717;46.924;15.474;2023-09-08T00:54:11;98490.25;;;14.99;100.00
27202;BME280;14717;46.924;15.474;2023-09-08T00:56:37;98489.63;;;15.02;100.00
27202;BME280;14717;46.924;15.474;2023-09-08T00:59:04;98488.72;;;15.07;100.00
27202;BME280;14717;46.924;15.474;2023-09-08T01:01:29;98486.38;;;15.14;100.00
27202;BME280;14717;46.924;15.474;2023-09-08T01:03:55;98476.50;;;15.21;100.00
27202;BME280;14717;46.924;15.474;2023-09-08T01:06:21;98483.66;;;14.95;100.00
27202;BME280;14717;46.924;15.474;2023-09-08T01:08:46;98479.38;;;14.85;100.00
27202;BME280;14717;46.924;15.474;2023-09-08T01:11:12;98485.88;;;14.93;100.00
27202;BME280;14717;46.924;15.474;2023-09-08T01:13:37;98482.72;;;15.00;100.00
27202;BME280;14717;46.924;15.474;2023-09-08T01:16:03;98487.28;;;15.09;100.00
27202;BME280;14717;46.924;15.474;2023-09-08T01:18:28;98484.50;;;15.09;100.00
27202;BME280;14717;46.924;15.474;2023-09-08T01:21:12;98487.78;;;15.11;100.00
27202;BME280;14717;46.924;15.474;2023-09-08T01:26:07;98483.38;;;15.10;100.00
27202;BME280;14717;46.924;15.474;2023-09-08T01:28:34;98472.94;;;15.02;100.00
27202;BME280;14717;46.924;15.474;2023-09-08T01:30:59;98474.47;;;15.08;100.00
27202;BME280;14717;46.924;15.474;2023-09-08T01:33:25;98480.97;;;15.04;100.00
27202;BME280;14717;46.924;15.474;2023-09-08T01:35:52;98472.34;;;15.05;100.00
27202;BME280;14717;46.924;15.474;2023-09-08T01:38:18;98476.03;;;15.01;100.00
27202;BME280;14717;46.924;15.474;2023-09-08T01:40:43;98468.38;;;14.93;100.00
27202;BME280;14717;46.924;15.474;2023-09-08T01:43:08;98478.13;;;14.77;100.00
27202;BME280;14717;46.924;15.474;2023-09-08T01:45:33;98460.50;;;14.82;100.00
27202;BME280;14717;46.924;15.474;2023-09-08T01:47:59;98462.56;;;14.76;100.00
27202;BME280;14717;46.924;15.474;2023-09-08T01:50:24;98465.03;;;14.78;100.00
27202;BME280;14717;46.924;15.474;2023-09-08T01:52:50;98480.75;;;14.69;100.00
27202;BME280;14717;46.924;15.474;2023-09-08T01:55:15;98469.47;;;14.79;100.00
27202;BME280;14717;46.924;15.474;2023-09-08T01:57:44;98476.19;;;14.78;100.00
27202;BME280;14717;46.924;15.474;2023-09-08T02:00:10;98473.59;;;14.81;100.00
27202;BME280;14717;46.924;15.474;2023-09-08T02:02:35;98475.56;;;14.81;100.00
27202;BME280;14717;46.924;15.474;2023-09-08T02:05:01;98476.50;;;14.89;100.00
27202;BME280;14717;46.924;15.474;2023-09-08T02:07:26;98475.53;;;14.67;100.00
27202;BME280;14717;46.924;15.474;2023-09-08T02:09:51;98473.31;;;14.51;100.00
27202;BME280;14717;46.924;15.474;2023-09-08T02:12:16;98469.16;;;14.48;100.00
27202;BME280;14717;46.924;15.474;2023-09-08T02:14:42;98470.34;;;14.61;100.00
27202;BME280;14717;46.924;15.474;2023-09-08T02:17:07;98463.91;;;14.47;100.00
27202;BME280;14717;46.924;15.474;2023-09-08T02:19:33;98472.16;;;14.52;100.00
27202;BME280;14717;46.924;15.474;2023-09-08T02:21:58;98470.53;;;14.51;100.00
27202;BME280;14717;46.924;15.474;2023-09-08T02:24:23;98466.16;;;14.45;100.00
27202;BME280;14717;46.924;15.474;2023-09-08T02:26:49;98466.97;;;14.46;100.00
27202;BME280;14717;46.924;15.474;2023-09-08T02:29:14;98465.13;;;14.41;100.00
27202;BME280;14717;46.924;15.474;2023-09-08T02:31:40;98465.56;;;14.48;100.00
27202;BME280;14717;46.924;15.474;2023-09-08T02:34:05;98464.56;;;14.39;100.00
27202;BME280;14717;46.924;15.474;2023-09-08T02:36:30;98463.72;;;14.25;100.00
27202;BME280;14717;46.924;15.474;2023-09-08T02:38:56;98464.59;;;14.21;100.00
27202;BME280;14717;46.924;15.474;2023-09-08T02:41:22;98463.00;;;13.97;100.00
27202;BME280;14717;46.924;15.474;2023-09-08T02:43:48;98462.66;;;14.03;100.00
27202;BME280;14717;46.924;15.474;2023-09-08T02:46:14;98470.13;;;14.02;100.00
27202;BME280;14717;46.924;15.474;2023-09-08T02:48:40;98462.91;;;14.06;100.00
27202;BME280;14717;46.924;15.474;2023-09-08T02:51:05;98465.13;;;14.04;100.00
27202;BME280;14717;46.924;15.474;2023-09-08T02:53:31;98466.97;;;13.91;100.00
27202;BME280;14717;46.924;15.474;2023-09-08T02:55:57;98467.34;;;13.84;100.00
27202;BME280;14717;46.924;15.474;2023-09-08T02:58:23;98472.38;;;13.82;100.00
27202;BME280;14717;46.924;15.474;2023-09-08T03:00:49;98472.50;;;13.72;100.00
27202;BME280;14717;46.924;15.474;2023-09-08T03:03:15;98471.94;;;13.75;100.00
27202;BME280;14717;46.924;15.474;2023-09-08T03:05:40;98469.91;;;13.81;100.00
27202;BME280;14717;46.924;15.474;2023-09-08T03:08:06;98465.22;;;13.76;100.00
27202;BME280;14717;46.924;15.474;2023-09-08T03:10:31;98464.13;;;13.77;100.00
27202;BME280;14717;46.924;15.474;2023-09-08T03:13:00;98458.25;;;13.79;100.00
27202;BME280;14717;46.924;15.474;2023-09-08T03:15:25;98466.59;;;13.79;100.00
27202;BME280;14717;46.924;15.474;2023-09-08T03:17:54;98466.13;;;13.72;100.00
27202;BME280;14717;46.924;15.474;2023-09-08T03:20:19;98462.34;;;13.63;100.00
27202;BME280;14717;46.924;15.474;2023-09-08T03:22:44;98464.25;;;13.67;100.00
27202;BME280;14717;46.924;15.474;2023-09-08T03:25:10;98456.00;;;13.62;100.00
27202;BME280;14717;46.924;15.474;2023-09-08T03:27:35;98457.38;;;13.60;100.00
27202;BME280;14717;46.924;15.474;2023-09-08T03:30:01;98458.25;;;13.61;100.00
27202;BME280;14717;46.924;15.474;2023-09-08T03:32:26;98457.78;;;13.72;100.00
27202;BME280;14717;46.924;15.474;2023-09-08T03:34:54;98459.66;;;13.58;100.00
27202;BME280;14717;46.924;15.474;2023-09-08T03:37:19;98455.06;;;13.67;100.00
27202;BME280;14717;46.924;15.474;2023-09-08T03:39:44;98459.78;;;13.48;100.00
27202;BME280;14717;46.924;15.474;2023-09-08T03:42:09;98454.97;;;13.54;100.00
27202;BME280;14717;46.924;15.474;2023-09-08T03:44:35;98455.34;;;13.70;100.00
27202;BME280;14717;46.924;15.474;2023-09-08T03:47:00;98460.75;;;13.80;100.00
27202;BME280;14717;46.924;15.474;2023-09-08T03:49:27;98456.97;;;13.71;100.00
27202;BME280;14717;46.924;15.474;2023-09-08T03:51:53;98447.81;;;13.71;100.00
27202;BME280;14717;46.924;15.474;2023-09-08T03:54:18;98458.78;;;13.81;100.00
27202;BME280;14717;46.924;15.474;2023-09-08T03:56:43;98456.22;;;13.84;100.00
27202;BME280;14717;46.924;15.474;2023-09-08T03:59:08;98460.31;;;13.92;100.00
27202;BME280;14717;46.924;15.474;2023-09-08T04:01:34;98465.69;;;13.83;100.00
27202;BME280;14717;46.924;15.474;2023-09-08T04:03:59;98466.03;;;13.77;100.00
27202;BME280;14717;46.924;15.474;2023-09-08T04:06:24;98469.22;;;13.70;100.00
27202;BME280;14717;46.924;15.474;2023-09-08T04:08:50;98463.06;;;13.50;100.00
27202;BME280;14717;46.924;15.474;2023-09-08T04:11:15;98457.00;;;13.48;100.00
27202;BME280;14717;46.924;15.474;2023-09-08T04:13:42;98467.00;;;13.49;100.00
27202;BME280;14717;46.924;15.474;2023-09-08T04:16:07;98458.38;;;13.51;100.00
27202;BME280;14717;46.924;15.474;2023-09-08T04:18:32;98467.00;;;13.49;100.00
27202;BME280;14717;46.924;15.474;2023-09-08T04:20:58;98464.16;;;13.54;100.00
27202;BME280;14717;46.924;15.474;2023-09-08T04:23:23;98468.03;;;13.53;100.00
27202;BME280;14717;46.924;15.474;2023-09-08T04:25:49;98467.88;;;13.45;100.00
27202;BME280;14717;46.924;15.474;2023-09-08T04:28:14;98464.50;;;13.48;100.00
27202;BME280;14717;46.924;15.474;2023-09-08T04:30:39;98469.72;;;13.54;100.00
27202;BME280;14717;46.924;15.474;2023-09-08T04:33:05;98472.66;;;13.62;100.00
27202;BME280;14717;46.924;15.474;2023-09-08T04:35:30;98476.19;;;13.68;100.00
27202;BME280;14717;46.924;15.474;2023-09-08T04:37:55;98476.00;;;13.60;100.00
27202;BME280;14717;46.924;15.474;2023-09-08T04:40:21;98478.44;;;13.43;100.00
27202;BME280;14717;46.924;15.474;2023-09-08T04:42:46;98475.91;;;13.46;100.00
27202;BME280;14717;46.924;15.474;2023-09-08T04:45:11;98475.38;;;13.44;100.00
27202;BME280;14717;46.924;15.474;2023-09-08T04:47:37;98473.66;;;13.48;100.00
27202;BME280;14717;46.924;15.474;2023-09-08T04:50:02;98475.75;;;13.38;100.00
27202;BME280;14717;46.924;15.474;2023-09-08T04:52:28;98478.91;;;13.50;100.00
27202;BME280;14717;46.924;15.474;2023-09-08T04:54:54;98486.94;;;13.51;100.00
27202;BME280;14717;46.924;15.474;2023-09-08T04:57:19;98481.28;;;13.61;100.00
27202;BME280;14717;46.924;15.474;2023-09-08T04:59:44;98484.38;;;13.78;100.00
27202;BME280;14717;46.924;15.474;2023-09-08T05:02:10;98485.06;;;13.88;100.00
27202;BME280;14717;46.924;15.474;2023-09-08T05:04:35;98489.72;;;13.93;100.00
27202;BME280;14717;46.924;15.474;2023-09-08T05:07:00;98486.34;;;13.96;100.00
27202;BME280;14717;46.924;15.474;2023-09-08T05:09:26;98490.88;;;13.92;100.00
27202;BME280;14717;46.924;15.474;2023-09-08T05:11:51;98486.94;;;13.93;100.00
27202;BME280;14717;46.924;15.474;2023-09-08T05:14:16;98489.56;;;14.02;100.00
27202;BME280;14717;46.924;15.474;2023-09-08T05:16:42;98490.69;;;14.06;100.00
27202;BME280;14717;46.924;15.474;2023-09-08T05:19:12;98492.31;;;14.07;100.00
27202;BME280;14717;46.924;15.474;2023-09-08T05:21:38;98503.53;;;13.98;100.00
27202;BME280;14717;46.924;15.474;2023-09-08T05:24:04;98495.72;;;14.00;100.00
27202;BME280;14717;46.924;15.474;2023-09-08T05:26:29;98498.75;;;14.03;100.00
27202;BME280;14717;46.924;15.474;2023-09-08T05:28:55;98503.88;;;14.14;100.00
27202;BME280;14717;46.924;15.474;2023-09-08T05:31:20;98492.41;;;14.21;100.00
27202;BME280;14717;46.924;15.474;2023-09-08T05:33:45;98498.31;;;14.33;100.00
27202;BME280;14717;46.924;15.474;2023-09-08T05:36:11;98501.44;;;14.31;100.00
27202;BME280;14717;46.924;15.474;2023-09-08T05:38:36;98501.78;;;14.43;100.00
27202;BME280;14717;46.924;15.474;2023-09-08T05:41:01;98508.91;;;14.49;100.00
27202;BME280;14717;46.924;15.474;2023-09-08T05:43:28;98505.59;;;14.65;100.00
27202;BME280;14717;46.924;15.474;2023-09-08T05:45:53;98511.81;;;14.76;100.00
27202;BME280;14717;46.924;15.474;2023-09-08T05:48:18;98501.56;;;14.89;100.00
27202;BME280;14717;46.924;15.474;2023-09-08T05:50:44;98502.66;;;14.88;100.00
27202;BME280;14717;46.924;15.474;2023-09-08T05:53:09;98505.44;;;14.88;100.00
27202;BME280;14717;46.924;15.474;2023-09-08T05:55:35;98502.41;;;15.03;100.00
27202;BME280;14717;46.924;15.474;2023-09-08T05:58:00;98504.34;;;15.21;100.00
27202;BME280;14717;46.924;15.474;2023-09-08T06:00:26;98508.59;;;15.32;100.00
27202;BME280;14717;46.924;15.474;2023-09-08T06:02:51;98510.16;;;15.38;100.00
27202;BME280;14717;46.924;15.474;2023-09-08T06:05:17;98508.91;;;15.44;100.00
27202;BME280;14717;46.924;15.474;2023-09-08T06:07:42;98508.72;;;15.54;100.00
27202;BME280;14717;46.924;15.474;2023-09-08T06:10:08;98514.06;;;15.64;100.00
27202;BME280;14717;46.924;15.474;2023-09-08T06:12:34;98518.44;;;15.70;100.00
27202;BME280;14717;46.924;15.474;2023-09-08T06:14:59;98513.66;;;15.83;100.00
27202;BME280;14717;46.924;15.474;2023-09-08T06:17:24;98518.59;;;16.13;100.00
27202;BME280;14717;46.924;15.474;2023-09-08T06:19:50;98502.59;;;16.32;100.00
27202;BME280;14717;46.924;15.474;2023-09-08T06:22:15;98502.72;;;16.49;100.00
27202;BME280;14717;46.924;15.474;2023-09-08T06:24:40;98504.03;;;16.64;100.00
27202;BME280;14717;46.924;15.474;2023-09-08T06:27:06;98505.91;;;16.56;100.00
27202;BME280;14717;46.924;15.474;2023-09-08T06:29:31;98512.13;;;16.53;100.00
27202;BME280;14717;46.924;15.474;2023-09-08T06:31:57;98512.84;;;16.80;100.00
27202;BME280;14717;46.924;15.474;2023-09-08T06:34:22;98503.66;;;17.01;100.00
27202;BME280;14717;46.924;15.474;2023-09-08T06:36:48;98505.53;;;17.14;100.00
27202;BME280;14717;46.924;15.474;2023-09-08T06:39:13;98501.72;;;17.32;100.00
27202;BME280;14717;46.924;15.474;2023-09-08T06:41:39;98505.53;;;17.36;100.00
27202;BME280;14717;46.924;15.474;2023-09-08T06:44:04;98507.56;;;17.44;100.00
27202;BME280;14717;46.924;15.474;2023-09-08T06:46:30;98504.63;;;17.48;100.00
27202;BME280;14717;46.924;15.474;2023-09-08T06:48:55;98506.59;;;17.56;100.00
27202;BME280;14717;46.924;15.474;2023-09-08T06:51:20;98506.16;;;17.33;100.00
27202;BME280;14717;46.924;15.474;2023-09-08T06:53:53;98510.31;;;17.35;100.00
27202;BME280;14717;46.924;15.474;2023-09-08T06:56:19;98504.97;;;17.55;100.00
27202;BME280;14717;46.924;15.474;2023-09-08T06:58:45;98506.44;;;17.53;100.00
27202;BME280;14717;46.924;15.474;2023-09-08T07:01:11;98514.00;;;17.52;100.00
27202;BME280;14717;46.924;15.474;2023-09-08T07:03:37;98508.22;;;17.88;100.00
27202;BME280;14717;46.924;15.474;2023-09-08T07:06:02;98509.38;;;17.87;100.00
27202;BME280;14717;46.924;15.474;2023-09-08T07:08:29;98509.06;;;17.88;100.00
27202;BME280;14717;46.924;15.474;2023-09-08T07:10:55;98507.19;;;18.14;100.00
27202;BME280;14717;46.924;15.474;2023-09-08T07:13:20;98510.00;;;18.22;100.00
27202;BME280;14717;46.924;15.474;2023-09-08T07:15:46;98506.72;;;18.29;100.00
27202;BME280;14717;46.924;15.474;2023-09-08T07:18:11;98505.28;;;18.56;100.00
27202;BME280;14717;46.924;15.474;2023-09-08T07:20:37;98495.56;;;18.79;100.00
27202;BME280;14717;46.924;15.474;2023-09-08T07:23:02;98504.28;;;18.86;99.67
27202;BME280;14717;46.924;15.474;2023-09-08T07:25:28;98502.84;;;19.05;99.75
27202;BME280;14717;46.924;15.474;2023-09-08T07:27:53;98499.53;;;19.12;100.00
27202;BME280;14717;46.924;15.474;2023-09-08T07:30:19;98487.44;;;19.36;97.72
27202;BME280;14717;46.924;15.474;2023-09-08T07:32:45;98504.50;;;19.60;94.28
27202;BME280;14717;46.924;15.474;2023-09-08T07:35:10;98500.19;;;19.71;91.15
27202;BME280;14717;46.924;15.474;2023-09-08T07:37:45;98499.84;;;19.72;93.94
27202;BME280;14717;46.924;15.474;2023-09-08T07:40:11;98501.78;;;19.89;94.69
27202;BME280;14717;46.924;15.474;2023-09-08T07:42:37;98501.78;;;19.89;90.77
27202;BME280;14717;46.924;15.474;2023-09-08T07:45:03;98491.81;;;20.00;92.13
27202;BME280;14717;46.924;15.474;2023-09-08T07:47:29;98494.56;;;20.16;94.79
27202;BME280;14717;46.924;15.474;2023-09-08T07:50:18;98489.38;;;20.47;88.96
27202;BME280;14717;46.924;15.474;2023-09-08T07:52:45;98495.94;;;20.80;86.92
27202;BME280;14717;46.924;15.474;2023-09-08T07:55:10;98492.28;;;20.99;84.35
27202;BME280;14717;46.924;15.474;2023-09-08T07:57:36;98488.81;;;20.82;88.20
27202;BME280;14717;46.924;15.474;2023-09-08T08:00:02;98495.97;;;20.51;86.98
27202;BME280;14717;46.924;15.474;2023-09-08T08:02:27;98487.16;;;20.61;88.41
27202;BME280;14717;46.924;15.474;2023-09-08T08:04:53;98483.97;;;20.71;91.06
27202;BME280;14717;46.924;15.474;2023-09-08T08:07:18;98482.91;;;20.95;89.75
27202;BME280;14717;46.924;15.474;2023-09-08T08:09:43;98487.38;;;21.29;84.58
27202;BME280;14717;46.924;15.474;2023-09-08T08:12:09;98488.44;;;21.56;82.43
27202;BME280;14717;46.924;15.474;2023-09-08T08:14:34;98488.34;;;21.77;83.20
27202;BME280;14717;46.924;15.474;2023-09-08T08:17:00;98493.03;;;22.08;81.65
27202;BME280;14717;46.924;15.474;2023-09-08T08:19:26;98490.22;;;22.08;79.82
27202;BME280;14717;46.924;15.474;2023-09-08T08:21:51;98486.03;;;22.14;77.89
27202;BME280;14717;46.924;15.474;2023-09-08T08:24:17;98482.03;;;22.15;79.79
27202;BME280;14717;46.924;15.474;2023-09-08T08:26:42;98483.69;;;22.52;77.73
27202;BME280;14717;46.924;15.474;2023-09-08T08:29:08;98477.81;;;22.57;77.91
27202;BME280;14717;46.924;15.474;2023-09-08T08:31:33;98478.06;;;22.40;79.70
27202;BME280;14717;46.924;15.474;2023-09-08T08:33:58;98467.75;;;22.32;75.20
27202;BME280;14717;46.924;15.474;2023-09-08T08:36:24;98472.63;;;22.59;76.11
27202;BME280;14717;46.924;15.474;2023-09-08T08:38:49;98469.75;;;22.82;75.04
27202;BME280;14717;46.924;15.474;2023-09-08T08:41:15;98464.22;;;22.98;72.86
27202;BME280;14717;46.924;15.474;2023-09-08T08:43:42;98457.75;;;23.24;72.41
27202;BME280;14717;46.924;15.474;2023-09-08T08:46:08;98463.13;;;23.45;72.29
27202;BME280;14717;46.924;15.474;2023-09-08T08:48:35;98457.91;;;23.58;67.66
27202;BME280;14717;46.924;15.474;2023-09-08T08:51:02;98465.16;;;23.71;70.57
27202;BME280;14717;46.924;15.474;2023-09-08T08:53:28;98467.59;;;23.88;70.60
27202;BME280;14717;46.924;15.474;2023-09-08T08:55:56;98465.97;;;24.02;70.22
27202;BME280;14717;46.924;15.474;2023-09-08T08:58:25;98465.06;;;24.14;67.63
27202;BME280;14717;46.924;15.474;2023-09-08T09:00:53;98456.75;;;23.90;69.96
27202;BME280;14717;46.924;15.474;2023-09-08T09:03:21;98463.88;;;23.99;69.64
27202;BME280;14717;46.924;15.474;2023-09-08T09:05:48;98461.69;;;24.24;68.85
27202;BME280;14717;46.924;15.474;2023-09-08T09:08:15;98460.59;;;24.43;68.21
27202;BME280;14717;46.924;15.474;2023-09-08T09:10:41;98458.22;;;24.64;69.37
27202;BME280;14717;46.924;15.474;2023-09-08T09:13:07;98454.88;;;24.59;66.38
27202;BME280;14717;46.924;15.474;2023-09-08T09:15:32;98468.06;;;24.70;65.54
27202;BME280;14717;46.924;15.474;2023-09-08T09:18:16;98460.97;;;24.95;64.32
27202;BME280;14717;46.924;15.474;2023-09-08T09:20:53;98460.16;;;24.94;66.26
27202;BME280;14717;46.924;15.474;2023-09-08T09:23:27;98461.44;;;24.97;65.97
27202;BME280;14717;46.924;15.474;2023-09-08T09:25:53;98457.28;;;25.10;63.41
27202;BME280;14717;46.924;15.474;2023-09-08T09:28:18;98449.38;;;25.00;66.42
27202;BME280;14717;46.924;15.474;2023-09-08T09:30:47;98456.50;;;25.31;66.64
27202;BME280;14717;46.924;15.474;2023-09-08T09:33:13;98439.41;;;25.25;65.55
27202;BME280;14717;46.924;15.474;2023-09-08T09:35:43;98445.94;;;25.28;65.50
27202;BME280;14717;46.924;15.474;2023-09-08T09:38:09;98448.94;;;25.17;62.20
27202;BME280;14717;46.924;15.474;2023-09-08T09:40:35;98442.72;;;25.30;62.59
27202;BME280;14717;46.924;15.474;2023-09-08T09:43:00;98452.09;;;25.53;61.57
27202;BME280;14717;46.924;15.474;2023-09-08T09:45:26;98451.00;;;25.01;63.20
27202;BME280;14717;46.924;15.474;2023-09-08T09:47:52;98443.19;;;25.13;63.86
27202;BME280;14717;46.924;15.474;2023-09-08T09:50:35;98450.50;;;25.14;59.62
27202;BME280;14717;46.924;15.474;2023-09-08T09:53:07;98444.50;;;25.38;59.63
27202;BME280;14717;46.924;15.474;2023-09-08T09:55:33;98447.69;;;25.55;58.33
27202;BME280;14717;46.924;15.474;2023-09-08T09:57:59;98440.81;;;25.34;62.65
27202;BME280;14717;46.924;15.474;2023-09-08T10:00:29;98443.47;;;25.27;59.48
27202;BME280;14717;46.924;15.474;2023-09-08T10:02:56;98439.50;;;25.50;62.48
27202;BME280;14717;46.924;15.474;2023-09-08T10:05:23;98444.59;;;25.82;62.91
27202;BME280;14717;46.924;15.474;2023-09-08T10:07:49;98448.06;;;25.95;54.07
27202;BME280;14717;46.924;15.474;2023-09-08T10:10:15;98437.91;;;26.16;54.36
27202;BME280;14717;46.924;15.474;2023-09-08T10:12:44;98434.28;;;25.93;56.50
27202;BME280;14717;46.924;15.474;2023-09-08T10:15:13;98431.06;;;25.95;53.89
27202;BME280;14717;46.924;15.474;2023-09-08T10:17:44;98421.09;;;26.26;54.91
27202;BME280;14717;46.924;15.474;2023-09-08T10:20:10;98424.22;;;26.21;59.12
27202;BME280;14717;46.924;15.474;2023-09-08T10:22:42;98423.13;;;26.26;55.41
27202;BME280;14717;46.924;15.474;2023-09-08T10:25:09;98408.31;;;26.36;52.80
27202;BME280;14717;46.924;15.474;2023-09-08T10:27:34;98418.00;;;26.60;52.14
27202;BME280;14717;46.924;15.474;2023-09-08T10:30:05;98414.28;;;26.09;54.08
27202;BME280;14717;46.924;15.474;2023-09-08T10:32:35;98408.56;;;26.05;50.15
27202;BME280;14717;46.924;15.474;2023-09-08T10:35:04;98406.50;;;26.24;51.74
27202;BME280;14717;46.924;15.474;2023-09-08T10:37:31;98408.44;;;26.46;45.79
27202;BME280;14717;46.924;15.474;2023-09-08T10:40:20;98411.66;;;26.99;46.74
27202;BME280;14717;46.924;15.474;2023-09-08T10:42:46;98408.94;;;26.81;50.43
27202;BME280;14717;46.924;15.474;2023-09-08T10:45:17;98403.03;;;26.89;49.22
27202;BME280;14717;46.924;15.474;2023-09-08T10:50:19;98409.44;;;27.15;50.33
27202;BME280;14717;46.924;15.474;2023-09-08T10:52:45;98405.63;;;27.37;49.65
27202;BME280;14717;46.924;15.474;2023-09-08T10:55:11;98404.69;;;27.23;49.09
27202;BME280;14717;46.924;15.474;2023-09-08T10:57:37;98409.69;;;27.03;46.72
27202;BME280;14717;46.924;15.474;2023-09-08T11:00:04;98399.13;;;27.00;47.28
27202;BME280;14717;46.924;15.474;2023-09-08T11:02:55;98400.13;;;27.47;48.82
27202;BME280;14717;46.924;15.474;2023-09-08T11:05:21;98404.00;;;27.33;47.27
27202;BME280;14717;46.924;15.474;2023-09-08T11:07:48;98391.31;;;27.59;48.14
27202;BME280;14717;46.924;15.474;2023-09-08T11:10:15;98391.84;;;27.39;47.29
27202;BME280;14717;46.924;15.474;2023-09-08T11:12:40;98392.69;;;27.03;48.63
27202;BME280;14717;46.924;15.474;2023-09-08T11:15:07;98390.00;;;27.17;48.95
27202;BME280;14717;46.924;15.474;2023-09-08T11:17:38;98396.25;;;27.30;46.21
27202;BME280;14717;46.924;15.474;2023-09-08T11:20:08;98384.66;;;27.12;48.09
27202;BME280;14717;46.924;15.474;2023-09-08T11:22:34;98387.72;;;27.30;47.50
27202;BME280;14717;46.924;15.474;2023-09-08T11:25:01;98389.13;;;27.86;45.42
27202;BME280;14717;46.924;15.474;2023-09-08T11:27:30;98389.06;;;27.79;42.75
27202;BME280;14717;46.924;15.474;2023-09-08T11:29:56;98386.72;;;27.87;42.09
27202;BME280;14717;46.924;15.474;2023-09-08T11:32:22;98390.41;;;27.91;41.02
27202;BME280;14717;46.924;15.474;2023-09-08T11:34:48;98386.56;;;28.13;42.94
27202;BME280;14717;46.924;15.474;2023-09-08T11:37:14;98391.03;;;28.14;41.01
27202;BME280;14717;46.924;15.474;2023-09-08T11:39:42;98387.00;;;28.15;39.47
27202;BME280;14717;46.924;15.474;2023-09-08T11:42:10;98383.00;;;28.23;38.88
27202;BME280;14717;46.924;15.474;2023-09-08T11:44:36;98383.72;;;28.13;39.30
27202;BME280;14717;46.924;15.474;2023-09-08T11:47:03;98388.34;;;28.31;41.17
27202;BME280;14717;46.924;15.474;2023-09-08T11:49:39;98382.31;;;28.43;40.33
27202;BME280;14717;46.924;15.474;2023-09-08T11:52:06;98390.41;;;28.38;40.40
27202;BME280;14717;46.924;15.474;2023-09-08T11:54:33;98375.69;;;28.26;41.33
27202;BME280;14717;46.924;15.474;2023-09-08T11:57:00;98376.97;;;28.35;41.35
27202;BME280;14717;46.924;15.474;2023-09-08T11:59:27;98372.66;;;28.58;41.28
27202;BME280;14717;46.924;15.474;2023-09-08T12:01:53;98379.94;;;28.56;41.57
27202;BME280;14717;46.924;15.474;2023-09-08T12:04:19;98375.00;;;28.46;38.53
27202;BME280;14717;46.924;15.474;2023-09-08T12:06:46;98370.28;;;28.64;39.59
27202;BME280;14717;46.924;15.474;2023-09-08T12:09:11;98354.06;;;28.68;40.96
27202;BME280;14717;46.924;15.474;2023-09-08T12:11:37;98357.16;;;28.52;39.30
27202;BME280;14717;46.924;15.474;2023-09-08T12:14:08;98358.41;;;28.55;43.17
27202;BME280;14717;46.924;15.474;2023-09-08T12:16:34;98352.34;;;28.60;41.38
27202;BME280;14717;46.924;15.474;2023-09-08T12:19:00;98347.47;;;28.60;40.48
27202;BME280;14717;46.924;15.474;2023-09-08T12:21:26;98350.16;;;28.36;39.74
27202;BME280;14717;46.924;15.474;2023-09-08T12:23:53;98347.41;;;28.50;40.51
27202;BME280;14717;46.924;15.474;2023-09-08T12:26:19;98345.88;;;28.63;39.32
27202;BME280;14717;46.924;15.474;2023-09-08T12:28:46;98341.72;;;28.50;40.33
27202;BME280;14717;46.924;15.474;2023-09-08T12:31:16;98348.16;;;28.36;39.49
27202;BME280;14717;46.924;15.474;2023-09-08T12:33:46;98344.31;;;28.72;40.34
27202;BME280;14717;46.924;15.474;2023-09-08T12:36:16;98339.53;;;29.00;39.58
27202;BME280;14717;46.924;15.474;2023-09-08T12:38:50;98331.84;;;29.01;40.20
27202;BME280;14717;46.924;15.474;2023-09-08T12:41:16;98337.47;;;28.87;39.96
27202;BME280;14717;46.924;15.474;2023-09-08T12:43:41;98336.22;;;28.74;41.70
27202;BME280;14717;46.924;15.474;2023-09-08T12:46:06;98331.31;;;28.74;40.34